sensor_id;sensor_type;location;lat;lon;timestamp;temperature;humidity
4643;DHT22;2334;48.710;9.622;2024-01-16T00:01:14;-0.40;99.90
4643;DHT22;2334;48.710;9.622;2024-01-16T00:03:42;-0.50;99.90
4643;DHT22;2334;48.710;9.622;2024-01-16T00:06:11;-0.50;99.90
4643;DHT22;2334;48.710;9.622;2024-01-16T00:08:38;-0.50;99.90
4643;DHT22;2334;48.710;9.622;2024-01-16T00:11:04;-0.50;99.90
4643;DHT22;2334;48.710;9.622;2024-01-16T00:13:32;-0.50;99.90
4643;DHT22;2334;48.710;9.622;2024-01-16T00:16:01;-0.50;99.90
4643;DHT22;2334;48.710;9.622;2024-01-16T00:18:29;-0.50;99.90
4643;DHT22;2334;48.710;9.622;2024-01-16T00:20:55;-0.40;99.90
4643;DHT22;2334;48.710;9.622;2024-01-16T00:23:24;-0.40;99.90
4643;DHT22;2334;48.710;9.622;2024-01-16T00:25:51;-0.50;99.90
4643;DHT22;2334;48.710;9.622;2024-01-16T00:28:18;-0.50;99.90
4643;DHT22;2334;48.710;9.622;2024-01-16T00:30:45;-0.50;99.90
4643;DHT22;2334;48.710;9.622;2024-01-16T00:33:12;-0.50;99.90
4643;DHT22;2334;48.710;9.622;2024-01-16T00:35:39;-0.50;99.90
4643;DHT22;2334;48.710;9.622;2024-01-16T00:38:06;-0.50;99.90
4643;DHT22;2334;48.710;9.622;2024-01-16T00:40:34;-0.60;99.90
4643;DHT22;2334;48.710;9.622;2024-01-16T00:43:01;-0.50;99.90
4643;DHT22;2334;48.710;9.622;2024-01-16T00:45:28;-0.50;99.90
4643;DHT22;2334;48.710;9.622;2024-01-16T00:47:55;-0.60;99.90
4643;DHT22;2334;48.710;9.622;2024-01-16T00:50:22;-0.60;99.90
4643;DHT22;2334;48.710;9.622;2024-01-16T00:52:49;-0.60;99.90
4643;DHT22;2334;48.710;9.622;2024-01-16T00:55:16;-0.60;99.90
4643;DHT22;2334;48.710;9.622;2024-01-16T00:57:45;-0.70;99.90
4643;DHT22;2334;48.710;9.622;2024-01-16T01:00:12;-0.60;99.90
4643;DHT22;2334;48.710;9.622;2024-01-16T01:02:39;-0.60;99.90
4643;DHT22;2334;48.710;9.622;2024-01-16T01:05:07;-0.60;99.90
4643;DHT22;2334;48.710;9.622;2024-01-16T01:07:34;-0.60;99.90
4643;DHT22;2334;48.710;9.622;2024-01-16T01:10:02;-0.70;99.90
4643;DHT22;2334;48.710;9.622;2024-01-16T01:12:29;-0.70;99.90
4643;DHT22;2334;48.710;9.622;2024-01-16T01:14:57;-0.80;99.90
4643;DHT22;2334;48.710;9.622;2024-01-16T01:17:24;-0.80;99.90
4643;DHT22;2334;48.710;9.622;2024-01-16T01:19:51;-0.70;99.90
4643;DHT22;2334;48.710;9.622;2024-01-16T01:22:18;-0.70;99.90
4643;DHT22;2334;48.710;9.622;2024-01-16T01:24:45;-0.70;99.90
4643;DHT22;2334;48.710;9.622;2024-01-16T01:27:11;-0.80;99.90
4643;DHT22;2334;48.710;9.622;2024-01-16T01:29:38;-0.80;99.90
4643;DHT22;2334;48.710;9.622;2024-01-16T01:32:07;-0.80;99.90
4643;DHT22;2334;48.710;9.622;2024-01-16T01:34:34;-0.70;99.90
4643;DHT22;2334;48.710;9.622;2024-01-16T01:37:01;-0.70;99.90
4643;DHT22;2334;48.710;9.622;2024-01-16T01:39:28;-0.70;99.90
4643;DHT22;2334;48.710;9.622;2024-01-16T01:41:55;-0.70;99.90
4643;DHT22;2334;48.710;9.622;2024-01-16T01:44:22;-0.70;99.90
4643;DHT22;2334;48.710;9.622;2024-01-16T01:46:50;-0.70;99.90
4643;DHT22;2334;48.710;9.622;2024-01-16T01:49:19;-0.70;99.90
4643;DHT22;2334;48.710;9.622;2024-01-16T01:51:46;-0.80;99.90
4643;DHT22;2334;48.710;9.622;2024-01-16T01:54:14;-0.70;99.90
4643;DHT22;2334;48.710;9.622;2024-01-16T01:56:43;-0.70;99.90
4643;DHT22;2334;48.710;9.622;2024-01-16T01:59:11;-0.70;99.90
4643;DHT22;2334;48.710;9.622;2024-01-16T02:01:40;-0.70;99.90
4643;DHT22;2334;48.710;9.622;2024-01-16T02:04:08;-0.70;99.90
4643;DHT22;2334;48.710;9.622;2024-01-16T02:06:38;-0.70;99.90
4643;DHT22;2334;48.710;9.622;2024-01-16T02:09:05;-0.70;99.90
4643;DHT22;2334;48.710;9.622;2024-01-16T02:11:33;-0.70;99.90
4643;DHT22;2334;48.710;9.622;2024-01-16T02:14:00;-0.70;99.90
4643;DHT22;2334;48.710;9.622;2024-01-16T02:16:27;-0.70;99.90
4643;DHT22;2334;48.710;9.622;2024-01-16T02:19:01;-0.70;99.90
4643;DHT22;2334;48.710;9.622;2024-01-16T02:21:28;-0.70;99.90
4643;DHT22;2334;48.710;9.622;2024-01-16T02:24:00;-0.70;99.90
4643;DHT22;2334;48.710;9.622;2024-01-16T02:26:26;-0.70;99.90
4643;DHT22;2334;48.710;9.622;2024-01-16T02:28:53;-0.70;99.90
4643;DHT22;2334;48.710;9.622;2024-01-16T02:31:20;-0.80;99.90
4643;DHT22;2334;48.710;9.622;2024-01-16T02:33:47;-0.80;99.90
4643;DHT22;2334;48.710;9.622;2024-01-16T02:36:14;-0.80;99.90
4643;DHT22;2334;48.710;9.622;2024-01-16T02:38:41;-0.80;99.90
4643;DHT22;2334;48.710;9.622;2024-01-16T02:41:09;-0.80;99.90
4643;DHT22;2334;48.710;9.622;2024-01-16T02:43:36;-0.90;99.90
4643;DHT22;2334;48.710;9.622;2024-01-16T02:46:03;-0.80;99.90
4643;DHT22;2334;48.710;9.622;2024-01-16T02:48:29;-0.90;99.90
4643;DHT22;2334;48.710;9.622;2024-01-16T02:50:57;-0.90;99.90
4643;DHT22;2334;48.710;9.622;2024-01-16T02:53:23;-0.90;99.90
4643;DHT22;2334;48.710;9.622;2024-01-16T02:55:51;-0.80;99.90
4643;DHT22;2334;48.710;9.622;2024-01-16T02:58:19;-0.90;99.90
4643;DHT22;2334;48.710;9.622;2024-01-16T03:00:46;-0.90;99.90
4643;DHT22;2334;48.710;9.622;2024-01-16T03:03:13;-0.90;99.90
4643;DHT22;2334;48.710;9.622;2024-01-16T03:05:41;-0.90;99.90
4643;DHT22;2334;48.710;9.622;2024-01-16T03:08:08;-0.90;99.90
4643;DHT22;2334;48.710;9.622;2024-01-16T03:10:35;-0.90;99.90
4643;DHT22;2334;48.710;9.622;2024-01-16T03:13:02;-0.90;99.90
4643;DHT22;2334;48.710;9.622;2024-01-16T03:15:30;-0.90;99.90
4643;DHT22;2334;48.710;9.622;2024-01-16T03:17:57;-0.90;99.90
4643;DHT22;2334;48.710;9.622;2024-01-16T03:20:24;-1.00;99.90
4643;DHT22;2334;48.710;9.622;2024-01-16T03:22:51;-1.00;99.90
4643;DHT22;2334;48.710;9.622;2024-01-16T03:25:18;-1.00;99.90
4643;DHT22;2334;48.710;9.622;2024-01-16T03:27:46;-1.00;99.90
4643;DHT22;2334;48.710;9.622;2024-01-16T03:30:13;-1.00;99.90
4643;DHT22;2334;48.710;9.622;2024-01-16T03:32:42;-1.00;99.90
4643;DHT22;2334;48.710;9.622;2024-01-16T03:35:09;-1.00;99.90
4643;DHT22;2334;48.710;9.622;2024-01-16T03:37:37;-1.00;99.90
4643;DHT22;2334;48.710;9.622;2024-01-16T03:40:05;-1.00;99.90
4643;DHT22;2334;48.710;9.622;2024-01-16T03:42:33;-1.00;99.90
4643;DHT22;2334;48.710;9.622;2024-01-16T03:44:59;-1.00;99.90
4643;DHT22;2334;48.710;9.622;2024-01-16T03:47:26;-0.90;99.90
4643;DHT22;2334;48.710;9.622;2024-01-16T03:49:54;-0.90;99.90
4643;DHT22;2334;48.710;9.622;2024-01-16T03:52:21;-0.90;99.90
4643;DHT22;2334;48.710;9.622;2024-01-16T03:54:48;-1.00;99.90
4643;DHT22;2334;48.710;9.622;2024-01-16T03:57:15;-1.00;99.90
4643;DHT22;2334;48.710;9.622;2024-01-16T03:59:42;-0.90;99.90
4643;DHT22;2334;48.710;9.622;2024-01-16T04:02:09;-1.00;99.90
4643;DHT22;2334;48.710;9.622;2024-01-16T04:04:35;-1.00;99.90
4643;DHT22;2334;48.710;9.622;2024-01-16T04:07:04;-1.00;99.90
4643;DHT22;2334;48.710;9.622;2024-01-16T04:09:31;-1.00;99.90
4643;DHT22;2334;48.710;9.622;2024-01-16T04:11:58;-1.00;99.90
4643;DHT22;2334;48.710;9.622;2024-01-16T04:14:24;-1.10;99.90
4643;DHT22;2334;48.710;9.622;2024-01-16T04:16:51;-1.10;99.90
4643;DHT22;2334;48.710;9.622;2024-01-16T04:19:18;-1.10;99.90
4643;DHT22;2334;48.710;9.622;2024-01-16T04:21:45;-1.20;99.90
4643;DHT22;2334;48.710;9.622;2024-01-16T04:24:13;-1.30;99.90
4643;DHT22;2334;48.710;9.622;2024-01-16T04:26:40;-1.40;99.90
4643;DHT22;2334;48.710;9.622;2024-01-16T04:29:07;-1.40;99.90
4643;DHT22;2334;48.710;9.622;2024-01-16T04:31:39;-1.40;99.90
4643;DHT22;2334;48.710;9.622;2024-01-16T04:34:06;-1.50;99.90
4643;DHT22;2334;48.710;9.622;2024-01-16T04:36:34;-1.50;99.90
4643;DHT22;2334;48.710;9.622;2024-01-16T04:39:00;-1.60;99.90
4643;DHT22;2334;48.710;9.622;2024-01-16T04:41:30;-1.70;99.90
4643;DHT22;2334;48.710;9.622;2024-01-16T04:43:57;-1.70;99.90
4643;DHT22;2334;48.710;9.622;2024-01-16T04:46:24;-1.80;99.90
4643;DHT22;2334;48.710;9.622;2024-01-16T04:48:51;-1.80;99.90
4643;DHT22;2334;48.710;9.622;2024-01-16T04:51:18;-1.90;99.90
4643;DHT22;2334;48.710;9.622;2024-01-16T04:53:45;-1.90;99.90
4643;DHT22;2334;48.710;9.622;2024-01-16T04:56:11;-2.00;99.90
4643;DHT22;2334;48.710;9.622;2024-01-16T04:58:40;-2.10;99.90
4643;DHT22;2334;48.710;9.622;2024-01-16T05:01:07;-2.10;99.90
4643;DHT22;2334;48.710;9.622;2024-01-16T05:03:34;-2.10;99.90
4643;DHT22;2334;48.710;9.622;2024-01-16T05:06:02;-2.10;99.90
4643;DHT22;2334;48.710;9.622;2024-01-16T05:08:28;-2.10;99.90
4643;DHT22;2334;48.710;9.622;2024-01-16T05:10:56;-2.10;99.90
4643;DHT22;2334;48.710;9.622;2024-01-16T05:13:23;-2.20;99.90
4643;DHT22;2334;48.710;9.622;2024-01-16T05:15:51;-2.20;99.90
4643;DHT22;2334;48.710;9.622;2024-01-16T05:18:18;-2.30;99.90
4643;DHT22;2334;48.710;9.622;2024-01-16T05:20:45;-2.30;99.90
4643;DHT22;2334;48.710;9.622;2024-01-16T05:23:12;-2.30;99.90
4643;DHT22;2334;48.710;9.622;2024-01-16T05:25:39;-2.30;99.90
4643;DHT22;2334;48.710;9.622;2024-01-16T05:28:06;-2.30;99.90
4643;DHT22;2334;48.710;9.622;2024-01-16T05:30:33;-2.40;99.90
4643;DHT22;2334;48.710;9.622;2024-01-16T05:33:02;-2.40;99.90
4643;DHT22;2334;48.710;9.622;2024-01-16T05:35:30;-2.60;99.90
4643;DHT22;2334;48.710;9.622;2024-01-16T05:37:57;-2.70;99.90
4643;DHT22;2334;48.710;9.622;2024-01-16T05:40:24;-2.80;99.90
4643;DHT22;2334;48.710;9.622;2024-01-16T05:42:51;-2.90;99.90
4643;DHT22;2334;48.710;9.622;2024-01-16T05:45:18;-2.90;99.90
4643;DHT22;2334;48.710;9.622;2024-01-16T05:47:46;-2.90;99.90
4643;DHT22;2334;48.710;9.622;2024-01-16T05:50:14;-2.90;99.90
4643;DHT22;2334;48.710;9.622;2024-01-16T05:52:42;-2.90;99.90
4643;DHT22;2334;48.710;9.622;2024-01-16T05:55:09;-2.90;99.90
4643;DHT22;2334;48.710;9.622;2024-01-16T05:57:36;-2.90;99.90
4643;DHT22;2334;48.710;9.622;2024-01-16T06:00:04;-3.00;99.90
4643;DHT22;2334;48.710;9.622;2024-01-16T06:02:31;-2.90;99.90
4643;DHT22;2334;48.710;9.622;2024-01-16T06:04:58;-3.00;99.90
4643;DHT22;2334;48.710;9.622;2024-01-16T06:07:27;-3.10;99.90
4643;DHT22;2334;48.710;9.622;2024-01-16T06:09:53;-3.20;99.90
4643;DHT22;2334;48.710;9.622;2024-01-16T06:12:20;-3.30;99.90
4643;DHT22;2334;48.710;9.622;2024-01-16T06:14:47;-3.20;99.90
4643;DHT22;2334;48.710;9.622;2024-01-16T06:17:14;-3.10;99.90
4643;DHT22;2334;48.710;9.622;2024-01-16T06:19:41;-3.10;99.90
4643;DHT22;2334;48.710;9.622;2024-01-16T06:22:08;-3.10;99.90
4643;DHT22;2334;48.710;9.622;2024-01-16T06:24:37;-3.10;99.90
4643;DHT22;2334;48.710;9.622;2024-01-16T06:27:05;-3.10;99.90
4643;DHT22;2334;48.710;9.622;2024-01-16T06:29:32;-3.20;99.90
4643;DHT22;2334;48.710;9.622;2024-01-16T06:31:59;-3.20;99.90
4643;DHT22;2334;48.710;9.622;2024-01-16T06:34:26;-3.20;99.90
4643;DHT22;2334;48.710;9.622;2024-01-16T06:36:54;-3.20;99.90
4643;DHT22;2334;48.710;9.622;2024-01-16T06:39:21;-3.10;99.90
4643;DHT22;2334;48.710;9.622;2024-01-16T06:41:49;-3.10;99.90
4643;DHT22;2334;48.710;9.622;2024-01-16T06:44:16;-3.00;99.90
4643;DHT22;2334;48.710;9.622;2024-01-16T06:46:43;-3.00;99.90
4643;DHT22;2334;48.710;9.622;2024-01-16T06:49:09;-3.00;99.90
4643;DHT22;2334;48.710;9.622;2024-01-16T06:51:36;-3.00;99.90
4643;DHT22;2334;48.710;9.622;2024-01-16T06:54:03;-3.00;99.90
4643;DHT22;2334;48.710;9.622;2024-01-16T06:56:31;-3.00;99.90
4643;DHT22;2334;48.710;9.622;2024-01-16T06:58:59;-3.00;99.90
4643;DHT22;2334;48.710;9.622;2024-01-16T07:01:26;-3.00;99.90
4643;DHT22;2334;48.710;9.622;2024-01-16T07:03:53;-2.90;99.90
4643;DHT22;2334;48.710;9.622;2024-01-16T07:06:20;-2.90;99.90
4643;DHT22;2334;48.710;9.622;2024-01-16T07:08:47;-2.90;99.90
4643;DHT22;2334;48.710;9.622;2024-01-16T07:11:14;-2.90;99.90
4643;DHT22;2334;48.710;9.622;2024-01-16T07:13:41;-2.90;99.90
4643;DHT22;2334;48.710;9.622;2024-01-16T07:16:10;-2.90;99.90
4643;DHT22;2334;48.710;9.622;2024-01-16T07:18:38;-2.90;99.90
4643;DHT22;2334;48.710;9.622;2024-01-16T07:21:16;-3.00;99.90
4643;DHT22;2334;48.710;9.622;2024-01-16T07:23:43;-3.00;99.90
4643;DHT22;2334;48.710;9.622;2024-01-16T07:26:10;-3.00;99.90
4643;DHT22;2334;48.710;9.622;2024-01-16T07:28:37;-3.00;99.90
4643;DHT22;2334;48.710;9.622;2024-01-16T07:31:04;-2.90;99.90
4643;DHT22;2334;48.710;9.622;2024-01-16T07:33:32;-2.90;99.90
4643;DHT22;2334;48.710;9.622;2024-01-16T07:36:00;-2.90;99.90
4643;DHT22;2334;48.710;9.622;2024-01-16T07:38:30;-2.90;99.90
4643;DHT22;2334;48.710;9.622;2024-01-16T07:40:58;-2.80;99.90
4643;DHT22;2334;48.710;9.622;2024-01-16T07:43:25;-2.80;99.90
4643;DHT22;2334;48.710;9.622;2024-01-16T07:45:52;-2.80;99.90
4643;DHT22;2334;48.710;9.622;2024-01-16T07:48:19;-2.80;99.90
4643;DHT22;2334;48.710;9.622;2024-01-16T07:50:49;-2.80;99.90
4643;DHT22;2334;48.710;9.622;2024-01-16T07:53:16;-2.70;99.90
4643;DHT22;2334;48.710;9.622;2024-01-16T07:55:43;-2.70;99.90
4643;DHT22;2334;48.710;9.622;2024-01-16T07:58:11;-2.70;99.90
4643;DHT22;2334;48.710;9.622;2024-01-16T08:00:38;-2.70;99.90
4643;DHT22;2334;48.710;9.622;2024-01-16T08:03:08;-2.70;99.90
4643;DHT22;2334;48.710;9.622;2024-01-16T08:05:36;-2.80;99.90
4643;DHT22;2334;48.710;9.622;2024-01-16T08:08:07;-2.70;99.90
4643;DHT22;2334;48.710;9.622;2024-01-16T08:10:35;-2.60;99.90
4643;DHT22;2334;48.710;9.622;2024-01-16T08:13:02;-2.50;99.90
4643;DHT22;2334;48.710;9.622;2024-01-16T08:15:29;-2.40;99.90
4643;DHT22;2334;48.710;9.622;2024-01-16T08:17:55;-2.40;99.90
4643;DHT22;2334;48.710;9.622;2024-01-16T08:20:22;-2.30;99.90
4643;DHT22;2334;48.710;9.622;2024-01-16T08:22:49;-2.20;99.90
4643;DHT22;2334;48.710;9.622;2024-01-16T08:25:18;-2.20;99.90
4643;DHT22;2334;48.710;9.622;2024-01-16T08:27:45;-2.20;99.90
4643;DHT22;2334;48.710;9.622;2024-01-16T08:30:12;-2.10;99.90
4643;DHT22;2334;48.710;9.622;2024-01-16T08:32:39;-2.10;99.90
4643;DHT22;2334;48.710;9.622;2024-01-16T08:35:07;-2.00;99.90
4643;DHT22;2334;48.710;9.622;2024-01-16T08:37:34;-1.90;99.90
4643;DHT22;2334;48.710;9.622;2024-01-16T08:40:01;-1.80;99.90
4643;DHT22;2334;48.710;9.622;2024-01-16T08:42:31;-1.70;99.90
4643;DHT22;2334;48.710;9.622;2024-01-16T08:44:58;-1.70;99.90
4643;DHT22;2334;48.710;9.622;2024-01-16T08:47:25;-1.70;99.90
4643;DHT22;2334;48.710;9.622;2024-01-16T08:49:51;-1.80;99.90
4643;DHT22;2334;48.710;9.622;2024-01-16T08:52:18;-1.70;99.90
4643;DHT22;2334;48.710;9.622;2024-01-16T08:54:45;-1.50;99.90
4643;DHT22;2334;48.710;9.622;2024-01-16T08:57:12;-1.70;99.90
4643;DHT22;2334;48.710;9.622;2024-01-16T08:59:41;-1.60;99.90
4643;DHT22;2334;48.710;9.622;2024-01-16T09:02:08;-1.50;99.90
4643;DHT22;2334;48.710;9.622;2024-01-16T09:04:35;-1.40;99.90
4643;DHT22;2334;48.710;9.622;2024-01-16T09:07:03;-1.40;99.90
4643;DHT22;2334;48.710;9.622;2024-01-16T09:09:31;-1.40;99.90
4643;DHT22;2334;48.710;9.622;2024-01-16T09:11:58;-1.50;99.90
4643;DHT22;2334;48.710;9.622;2024-01-16T09:14:24;-1.40;99.90
4643;DHT22;2334;48.710;9.622;2024-01-16T09:16:53;-1.40;99.90
4643;DHT22;2334;48.710;9.622;2024-01-16T09:19:20;-1.30;99.90
4643;DHT22;2334;48.710;9.622;2024-01-16T09:21:47;-1.20;99.90
4643;DHT22;2334;48.710;9.622;2024-01-16T09:24:14;-1.20;99.90
4643;DHT22;2334;48.710;9.622;2024-01-16T09:26:41;-1.20;99.90
4643;DHT22;2334;48.710;9.622;2024-01-16T09:29:09;-1.10;99.90
4643;DHT22;2334;48.710;9.622;2024-01-16T09:31:36;-1.10;99.90
4643;DHT22;2334;48.710;9.622;2024-01-16T09:34:05;-1.10;99.90
4643;DHT22;2334;48.710;9.622;2024-01-16T09:36:32;-1.00;99.90
4643;DHT22;2334;48.710;9.622;2024-01-16T09:39:01;-0.80;99.90
4643;DHT22;2334;48.710;9.622;2024-01-16T09:41:28;-0.80;99.90
4643;DHT22;2334;48.710;9.622;2024-01-16T09:43:58;-0.80;99.90
4643;DHT22;2334;48.710;9.622;2024-01-16T09:46:26;-0.70;99.90
4643;DHT22;2334;48.710;9.622;2024-01-16T09:48:54;-0.70;99.90
4643;DHT22;2334;48.710;9.622;2024-01-16T09:51:23;-0.80;99.90
4643;DHT22;2334;48.710;9.622;2024-01-16T09:53:50;-0.70;99.90
4643;DHT22;2334;48.710;9.622;2024-01-16T09:56:21;-0.60;99.90
4643;DHT22;2334;48.710;9.622;2024-01-16T09:58:56;-0.50;99.90
4643;DHT22;2334;48.710;9.622;2024-01-16T10:01:26;-0.30;99.90
4643;DHT22;2334;48.710;9.622;2024-01-16T10:03:53;-0.20;99.90
4643;DHT22;2334;48.710;9.622;2024-01-16T10:06:20;-0.20;99.90
4643;DHT22;2334;48.710;9.622;2024-01-16T10:08:51;-0.20;99.90
4643;DHT22;2334;48.710;9.622;2024-01-16T10:11:17;-0.20;99.90
4643;DHT22;2334;48.710;9.622;2024-01-16T10:13:44;-0.20;99.90
4643;DHT22;2334;48.710;9.622;2024-01-16T10:16:11;-0.10;99.90
4643;DHT22;2334;48.710;9.622;2024-01-16T10:18:38;0.00;99.90
4643;DHT22;2334;48.710;9.622;2024-01-16T10:21:05;0.00;99.90
4643;DHT22;2334;48.710;9.622;2024-01-16T10:23:45;-0.10;99.90
4643;DHT22;2334;48.710;9.622;2024-01-16T10:26:14;0.10;99.90
4643;DHT22;2334;48.710;9.622;2024-01-16T10:28:41;0.00;99.90
4643;DHT22;2334;48.710;9.622;2024-01-16T10:31:11;0.00;99.90
4643;DHT22;2334;48.710;9.622;2024-01-16T10:33:39;0.10;99.90
4643;DHT22;2334;48.710;9.622;2024-01-16T10:36:11;0.10;99.90
4643;DHT22;2334;48.710;9.622;2024-01-16T10:38:38;-0.10;99.90
4643;DHT22;2334;48.710;9.622;2024-01-16T10:41:09;0.00;99.90
4643;DHT22;2334;48.710;9.622;2024-01-16T10:43:38;0.10;99.90
4643;DHT22;2334;48.710;9.622;2024-01-16T10:46:10;0.00;99.90
4643;DHT22;2334;48.710;9.622;2024-01-16T10:48:39;-0.30;99.90
4643;DHT22;2334;48.710;9.622;2024-01-16T10:51:06;-0.30;99.90
4643;DHT22;2334;48.710;9.622;2024-01-16T10:53:34;-0.20;99.90
4643;DHT22;2334;48.710;9.622;2024-01-16T10:56:02;-0.40;99.90
4643;DHT22;2334;48.710;9.622;2024-01-16T10:58:30;-0.50;99.90
4643;DHT22;2334;48.710;9.622;2024-01-16T11:01:02;-0.20;99.90
4643;DHT22;2334;48.710;9.622;2024-01-16T11:03:35;0.10;99.90
4643;DHT22;2334;48.710;9.622;2024-01-16T11:06:06;0.60;99.90
4643;DHT22;2334;48.710;9.622;2024-01-16T11:08:35;0.90;99.90
4643;DHT22;2334;48.710;9.622;2024-01-16T11:11:04;1.20;99.90
4643;DHT22;2334;48.710;9.622;2024-01-16T11:13:32;1.50;99.90
4643;DHT22;2334;48.710;9.622;2024-01-16T11:16:02;1.30;99.90
4643;DHT22;2334;48.710;9.622;2024-01-16T11:18:31;1.30;99.90
4643;DHT22;2334;48.710;9.622;2024-01-16T11:20:59;1.40;99.90
4643;DHT22;2334;48.710;9.622;2024-01-16T11:23:26;1.40;99.90
4643;DHT22;2334;48.710;9.622;2024-01-16T11:25:53;1.30;99.90
4643;DHT22;2334;48.710;9.622;2024-01-16T11:28:20;1.20;99.90
4643;DHT22;2334;48.710;9.622;2024-01-16T11:30:47;1.20;99.90
4643;DHT22;2334;48.710;9.622;2024-01-16T11:33:45;1.20;99.90
4643;DHT22;2334;48.710;9.622;2024-01-16T11:36:51;1.40;99.90
4643;DHT22;2334;48.710;9.622;2024-01-16T11:39:20;1.90;99.90
4643;DHT22;2334;48.710;9.622;2024-01-16T11:41:49;2.40;99.90
4643;DHT22;2334;48.710;9.622;2024-01-16T11:44:41;2.50;99.90
4643;DHT22;2334;48.710;9.622;2024-01-16T11:47:09;2.30;99.90
4643;DHT22;2334;48.710;9.622;2024-01-16T11:49:39;2.60;99.90
4643;DHT22;2334;48.710;9.622;2024-01-16T11:52:06;2.30;99.90
4643;DHT22;2334;48.710;9.622;2024-01-16T11:54:33;2.20;99.90
4643;DHT22;2334;48.710;9.622;2024-01-16T11:57:44;2.30;99.90
4643;DHT22;2334;48.710;9.622;2024-01-16T12:00:19;2.50;99.90
4643;DHT22;2334;48.710;9.622;2024-01-16T12:02:52;2.70;99.90
4643;DHT22;2334;48.710;9.622;2024-01-16T12:05:21;2.80;99.90
4643;DHT22;2334;48.710;9.622;2024-01-16T12:07:49;2.80;99.90
4643;DHT22;2334;48.710;9.622;2024-01-16T12:10:17;2.90;99.90
4643;DHT22;2334;48.710;9.622;2024-01-16T12:12:45;3.10;99.90
4643;DHT22;2334;48.710;9.622;2024-01-16T12:15:16;2.90;99.90
4643;DHT22;2334;48.710;9.622;2024-01-16T12:17:57;2.80;99.90
4643;DHT22;2334;48.710;9.622;2024-01-16T12:20:27;2.90;99.90
4643;DHT22;2334;48.710;9.622;2024-01-16T12:22:58;3.10;99.90
4643;DHT22;2334;48.710;9.622;2024-01-16T12:25:26;3.10;99.90
4643;DHT22;2334;48.710;9.622;2024-01-16T12:27:57;2.90;99.90
4643;DHT22;2334;48.710;9.622;2024-01-16T12:30:25;2.90;99.90
4643;DHT22;2334;48.710;9.622;2024-01-16T12:33:03;3.10;99.90
4643;DHT22;2334;48.710;9.622;2024-01-16T12:35:33;3.40;99.90
4643;DHT22;2334;48.710;9.622;2024-01-16T12:38:01;3.60;99.90
4643;DHT22;2334;48.710;9.622;2024-01-16T12:40:29;3.10;99.90
4643;DHT22;2334;48.710;9.622;2024-01-16T12:42:56;2.80;99.90
4643;DHT22;2334;48.710;9.622;2024-01-16T12:45:23;2.30;99.90
4643;DHT22;2334;48.710;9.622;2024-01-16T12:47:51;2.00;99.90
4643;DHT22;2334;48.710;9.622;2024-01-16T12:50:22;2.00;99.90
4643;DHT22;2334;48.710;9.622;2024-01-16T12:53:01;2.10;99.90
4643;DHT22;2334;48.710;9.622;2024-01-16T12:55:28;2.10;99.90
4643;DHT22;2334;48.710;9.622;2024-01-16T12:58:13;2.50;99.90
4643;DHT22;2334;48.710;9.622;2024-01-16T13:00:40;2.60;99.90
4643;DHT22;2334;48.710;9.622;2024-01-16T13:03:07;2.90;99.90
4643;DHT22;2334;48.710;9.622;2024-01-16T13:05:34;2.90;99.90
4643;DHT22;2334;48.710;9.622;2024-01-16T13:08:03;2.80;99.90
4643;DHT22;2334;48.710;9.622;2024-01-16T13:10:31;2.70;99.90
4643;DHT22;2334;48.710;9.622;2024-01-16T13:13:14;2.50;99.90
4643;DHT22;2334;48.710;9.622;2024-01-16T13:15:43;2.50;99.90
4643;DHT22;2334;48.710;9.622;2024-01-16T13:18:19;2.40;99.90
4643;DHT22;2334;48.710;9.622;2024-01-16T13:20:49;2.50;99.90
4643;DHT22;2334;48.710;9.622;2024-01-16T13:23:19;2.50;99.90
4643;DHT22;2334;48.710;9.622;2024-01-16T13:25:47;2.40;99.90
4643;DHT22;2334;48.710;9.622;2024-01-16T13:28:15;2.40;99.90
4643;DHT22;2334;48.710;9.622;2024-01-16T13:30:42;2.30;99.90
4643;DHT22;2334;48.710;9.622;2024-01-16T13:33:10;2.30;99.90
4643;DHT22;2334;48.710;9.622;2024-01-16T13:35:39;2.30;99.90
4643;DHT22;2334;48.710;9.622;2024-01-16T13:38:06;2.20;99.90
4643;DHT22;2334;48.710;9.622;2024-01-16T13:40:35;2.30;99.90
4643;DHT22;2334;48.710;9.622;2024-01-16T13:43:03;2.50;99.90
4643;DHT22;2334;48.710;9.622;2024-01-16T13:45:32;2.70;99.90
4643;DHT22;2334;48.710;9.622;2024-01-16T13:47:58;2.60;99.90
4643;DHT22;2334;48.710;9.622;2024-01-16T13:50:26;2.70;99.90
4643;DHT22;2334;48.710;9.622;2024-01-16T13:52:53;2.60;99.90
4643;DHT22;2334;48.710;9.622;2024-01-16T13:55:20;2.20;99.90
4643;DHT22;2334;48.710;9.622;2024-01-16T13:57:48;2.10;99.90
4643;DHT22;2334;48.710;9.622;2024-01-16T14:00:16;2.10;99.90
4643;DHT22;2334;48.710;9.622;2024-01-16T14:02:44;2.10;99.90
4643;DHT22;2334;48.710;9.622;2024-01-16T14:05:12;2.20;99.90
4643;DHT22;2334;48.710;9.622;2024-01-16T14:07:41;2.30;99.90
4643;DHT22;2334;48.710;9.622;2024-01-16T14:10:09;2.40;99.90
4643;DHT22;2334;48.710;9.622;2024-01-16T14:12:37;2.30;99.90
4643;DHT22;2334;48.710;9.622;2024-01-16T14:15:07;2.30;99.90
4643;DHT22;2334;48.710;9.622;2024-01-16T14:17:41;2.40;99.90
4643;DHT22;2334;48.710;9.622;2024-01-16T14:20:10;2.50;99.90
4643;DHT22;2334;48.710;9.622;2024-01-16T14:22:37;2.50;99.90
4643;DHT22;2334;48.710;9.622;2024-01-16T14:25:06;2.50;99.90
4643;DHT22;2334;48.710;9.622;2024-01-16T14:27:37;2.50;99.90
4643;DHT22;2334;48.710;9.622;2024-01-16T14:30:07;2.40;99.90
4643;DHT22;2334;48.710;9.622;2024-01-16T14:32:36;2.20;99.90
4643;DHT22;2334;48.710;9.622;2024-01-16T14:35:05;2.10;99.90
4643;DHT22;2334;48.710;9.622;2024-01-16T14:37:33;2.00;99.90
4643;DHT22;2334;48.710;9.622;2024-01-16T14:40:02;2.00;99.90
4643;DHT22;2334;48.710;9.622;2024-01-16T14:42:32;1.90;99.90
4643;DHT22;2334;48.710;9.622;2024-01-16T14:45:00;1.80;99.90
4643;DHT22;2334;48.710;9.622;2024-01-16T14:47:28;1.80;99.90
4643;DHT22;2334;48.710;9.622;2024-01-16T14:49:55;1.80;99.90
4643;DHT22;2334;48.710;9.622;2024-01-16T14:52:23;1.80;99.90
4643;DHT22;2334;48.710;9.622;2024-01-16T14:54:50;1.70;99.90
4643;DHT22;2334;48.710;9.622;2024-01-16T14:57:17;1.70;99.90
4643;DHT22;2334;48.710;9.622;2024-01-16T14:59:44;1.60;99.90
4643;DHT22;2334;48.710;9.622;2024-01-16T15:02:11;1.60;99.90
4643;DHT22;2334;48.710;9.622;2024-01-16T15:04:41;1.50;99.90
4643;DHT22;2334;48.710;9.622;2024-01-16T15:07:09;1.50;99.90
4643;DHT22;2334;48.710;9.622;2024-01-16T15:09:36;1.40;99.90
4643;DHT22;2334;48.710;9.622;2024-01-16T15:12:04;1.40;99.90
4643;DHT22;2334;48.710;9.622;2024-01-16T15:14:32;1.30;99.90
4643;DHT22;2334;48.710;9.622;2024-01-16T15:16:59;1.20;99.90
4643;DHT22;2334;48.710;9.622;2024-01-16T15:19:26;1.10;99.90
4643;DHT22;2334;48.710;9.622;2024-01-16T15:21:54;1.10;99.90
4643;DHT22;2334;48.710;9.622;2024-01-16T15:24:21;0.90;99.90
4643;DHT22;2334;48.710;9.622;2024-01-16T15:26:52;0.80;99.90
4643;DHT22;2334;48.710;9.622;2024-01-16T15:29:19;0.70;99.90
4643;DHT22;2334;48.710;9.622;2024-01-16T15:31:46;0.50;99.90
4643;DHT22;2334;48.710;9.622;2024-01-16T15:34:13;0.40;99.90
4643;DHT22;2334;48.710;9.622;2024-01-16T15:36:40;0.30;99.90
4643;DHT22;2334;48.710;9.622;2024-01-16T15:39:08;0.30;99.90
4643;DHT22;2334;48.710;9.622;2024-01-16T15:41:36;0.20;99.90
4643;DHT22;2334;48.710;9.622;2024-01-16T15:44:03;0.20;99.90
4643;DHT22;2334;48.710;9.622;2024-01-16T15:46:31;0.00;99.90
4643;DHT22;2334;48.710;9.622;2024-01-16T15:48:58;-0.10;99.90
4643;DHT22;2334;48.710;9.622;2024-01-16T15:51:25;-0.10;99.90
4643;DHT22;2334;48.710;9.622;2024-01-16T15:53:52;-0.30;99.90
4643;DHT22;2334;48.710;9.622;2024-01-16T15:56:20;-0.30;99.90
4643;DHT22;2334;48.710;9.622;2024-01-16T15:58:47;-0.40;99.90
4643;DHT22;2334;48.710;9.622;2024-01-16T16:01:15;-0.50;99.90
4643;DHT22;2334;48.710;9.622;2024-01-16T16:03:42;-0.50;99.90
4643;DHT22;2334;48.710;9.622;2024-01-16T16:06:10;-0.60;99.90
4643;DHT22;2334;48.710;9.622;2024-01-16T16:08:38;-0.70;99.90
4643;DHT22;2334;48.710;9.622;2024-01-16T16:11:06;-0.80;99.90
4643;DHT22;2334;48.710;9.622;2024-01-16T16:13:34;-0.80;99.90